createdAt,value
2018-08-13T00:00:12.333Z,2.20
2018-08-13T00:02:42.867Z,2.20
2018-08-13T00:05:13.274Z,2.20
2018-08-13T00:07:43.657Z,2.20
2018-08-13T00:10:14.168Z,2.30
2018-08-13T00:12:44.434Z,2.50
2018-08-13T00:15:15.084Z,2.40
2018-08-13T00:17:45.651Z,2.40
2018-08-13T00:20:16.148Z,2.30
2018-08-13T00:22:46.911Z,2.10
2018-08-13T00:25:17.487Z,2.53
2018-08-13T00:27:48.118Z,2.30
2018-08-13T00:30:18.703Z,2.40
2018-08-13T00:32:49.080Z,2.30
2018-08-13T00:35:19.738Z,2.50
2018-08-13T00:37:50.220Z,2.10
2018-08-13T00:40:20.922Z,2.37
2018-08-13T00:42:51.772Z,2.20
2018-08-13T00:45:22.666Z,2.40
2018-08-13T00:47:53.412Z,2.33
2018-08-13T00:50:23.938Z,2.53
2018-08-13T00:52:54.414Z,2.60
2018-08-13T00:55:24.647Z,2.20
2018-08-13T00:57:55.049Z,2.20
2018-08-13T01:00:25.521Z,2.20
2018-08-13T01:02:56.056Z,2.60
2018-08-13T01:05:26.827Z,2.27
2018-08-13T01:07:57.250Z,2.30
2018-08-13T01:10:27.923Z,2.03
2018-08-13T01:12:58.644Z,2.30
2018-08-13T01:15:29.106Z,2.20
2018-08-13T01:17:59.770Z,2.40
2018-08-13T01:20:30.190Z,2.37
2018-08-13T01:23:00.530Z,2.40
2018-08-13T01:25:31.248Z,2.30
2018-08-13T01:28:02.082Z,2.13
2018-08-13T01:30:32.475Z,2.23
2018-08-13T01:33:03.052Z,2.50
2018-08-13T01:35:33.475Z,2.50
2018-08-13T01:38:03.997Z,2.40
2018-08-13T01:40:34.348Z,2.53
2018-08-13T01:43:05.068Z,2.50
2018-08-13T01:45:35.827Z,2.30
2018-08-13T01:48:06.544Z,2.40
2018-08-13T01:50:37.109Z,2.50
2018-08-13T01:53:10.880Z,2.70
2018-08-13T01:55:41.345Z,2.60
2018-08-13T01:58:11.982Z,2.60
2018-08-13T02:00:42.450Z,2.40
2018-08-13T02:03:12.889Z,2.60
2018-08-13T02:05:43.498Z,2.40
2018-08-13T02:08:13.902Z,2.40
2018-08-13T02:10:44.457Z,2.30
2018-08-13T02:13:15.218Z,2.10
2018-08-13T02:15:45.584Z,2.53
2018-08-13T02:18:15.970Z,2.40
2018-08-13T02:20:46.402Z,2.73
2018-08-13T02:23:17.232Z,2.30
2018-08-13T02:25:47.811Z,2.50
2018-08-13T02:28:18.181Z,2.50
2018-08-13T02:30:48.745Z,2.33
2018-08-13T02:33:27.580Z,2.43
2018-08-13T02:35:58.115Z,2.10
2018-08-13T02:38:28.626Z,2.33
2018-08-13T02:40:59.118Z,2.20
2018-08-13T02:43:29.665Z,2.27
2018-08-13T02:45:59.959Z,2.33
2018-08-13T02:48:30.523Z,2.73
2018-08-13T02:51:01.012Z,2.60
2018-08-13T02:53:31.569Z,2.50
2018-08-13T02:56:01.935Z,2.60
2018-08-13T02:58:32.358Z,2.50
2018-08-13T03:01:02.860Z,2.67
2018-08-13T03:03:33.393Z,2.53
2018-08-13T03:06:03.901Z,2.80
2018-08-13T03:08:34.269Z,2.80
2018-08-13T03:11:04.979Z,2.83
2018-08-13T03:13:36.493Z,2.67
2018-08-13T03:16:06.915Z,2.53
2018-08-13T03:18:37.347Z,2.63
2018-08-13T03:21:07.885Z,2.70
2018-08-13T03:23:38.506Z,2.77
2018-08-13T03:26:09.410Z,2.80
2018-08-13T03:28:40.107Z,2.73
2018-08-13T03:31:10.457Z,2.43
2018-08-13T03:33:41.016Z,2.90
2018-08-13T03:36:11.394Z,2.73
2018-08-13T03:38:41.715Z,2.80
2018-08-13T03:41:12.091Z,2.80
2018-08-13T03:43:42.584Z,3.03
2018-08-13T03:46:13.138Z,3.00
2018-08-13T03:48:43.520Z,2.63
2018-08-13T03:51:14.192Z,2.97
2018-08-13T03:53:45.095Z,3.00
2018-08-13T03:56:15.693Z,2.90
2018-08-13T03:58:47.916Z,2.87
2018-08-13T04:01:18.814Z,3.23
2018-08-13T04:03:50.965Z,3.07
2018-08-13T04:06:21.739Z,3.00
2018-08-13T04:08:52.631Z,2.93
2018-08-13T04:11:23.450Z,3.37
2018-08-13T04:13:54.248Z,2.90
2018-08-13T04:16:24.616Z,3.23
2018-08-13T04:18:55.384Z,2.97
2018-08-13T04:21:26.126Z,2.83
2018-08-13T04:23:57.005Z,3.13
2018-08-13T04:26:27.478Z,2.77
2018-08-13T04:28:57.934Z,2.90
2018-08-13T04:31:28.660Z,3.60
2018-08-13T04:33:58.976Z,3.40
2018-08-13T04:36:29.549Z,3.13
2018-08-13T04:39:00.121Z,3.47
2018-08-13T04:41:32.353Z,2.87
2018-08-13T04:44:05.689Z,3.10
2018-08-13T04:46:37.594Z,3.00
2018-08-13T04:49:08.378Z,3.03
2018-08-13T04:51:38.789Z,2.97
2018-08-13T04:54:09.599Z,3.00
2018-08-13T04:56:40.045Z,3.00
2018-08-13T04:59:10.911Z,2.63
2018-08-13T05:01:41.918Z,2.80
2018-08-13T05:04:12.591Z,3.00
2018-08-13T05:06:43.417Z,3.13
2018-08-13T05:09:14.857Z,3.53
2018-08-13T05:11:45.575Z,2.80
2018-08-13T05:14:16.192Z,3.20
2018-08-13T05:16:47.121Z,3.27
2018-08-13T05:19:18.076Z,2.97
2018-08-13T05:21:48.734Z,3.10
2018-08-13T05:24:19.286Z,3.20
2018-08-13T05:26:50.409Z,3.30
2018-08-13T05:29:21.061Z,2.90
2018-08-13T05:31:51.964Z,2.80
2018-08-13T05:34:23.079Z,2.97
2018-08-13T05:36:53.904Z,3.30
2018-08-13T05:39:24.547Z,3.00
2018-08-13T05:41:54.871Z,2.80
2018-08-13T05:44:25.808Z,2.80
2018-08-13T05:46:56.292Z,3.10
2018-08-13T05:49:26.629Z,3.40
2018-08-13T05:51:56.933Z,3.10
2018-08-13T05:54:27.349Z,3.40
2018-08-13T05:56:57.676Z,3.03
2018-08-13T05:59:28.031Z,3.13
2018-08-13T06:01:58.551Z,3.23
2018-08-13T06:04:29.464Z,3.13
2018-08-13T06:06:59.853Z,3.20
2018-08-13T06:09:30.383Z,3.13
2018-08-13T06:12:00.932Z,3.00
2018-08-13T06:14:31.252Z,3.20
2018-08-13T06:17:01.693Z,3.20
2018-08-13T06:19:32.095Z,3.00
2018-08-13T06:22:02.630Z,2.97
2018-08-13T06:24:32.928Z,3.20
2018-08-13T06:27:03.830Z,3.23
2018-08-13T06:29:33.906Z,3.13
2018-08-13T06:32:04.208Z,3.23
2018-08-13T06:34:34.682Z,3.10
2018-08-13T06:37:05.115Z,3.07
2018-08-13T06:39:35.878Z,2.93
2018-08-13T06:42:06.321Z,3.10
2018-08-13T06:44:36.918Z,2.63
2018-08-13T06:47:08.174Z,2.53
2018-08-13T06:49:38.686Z,2.73
2018-08-13T06:52:09.459Z,2.70
2018-08-13T06:54:40.006Z,2.80
2018-08-13T06:57:10.625Z,3.10
2018-08-13T06:59:41.122Z,2.70
2018-08-13T07:02:11.527Z,2.60
2018-08-13T07:04:42.054Z,2.60
2018-08-13T07:07:12.575Z,2.70
2018-08-13T07:09:42.993Z,2.63
2018-08-13T07:12:13.460Z,2.60
2018-08-13T07:14:43.815Z,2.60
2018-08-13T07:17:14.316Z,2.60
2018-08-13T07:19:44.821Z,2.70
2018-08-13T07:22:15.338Z,2.70
2018-08-13T07:24:45.770Z,2.73
2018-08-13T07:27:16.565Z,2.73
2018-08-13T07:29:47.113Z,2.80
2018-08-13T07:32:17.717Z,2.63
2018-08-13T07:34:49.197Z,2.30
2018-08-13T07:37:19.967Z,2.50
2018-08-13T07:39:50.790Z,3.00
2018-08-13T07:42:21.412Z,2.50
2018-08-13T07:44:52.306Z,2.70
2018-08-13T07:47:22.868Z,2.70
2018-08-13T07:49:53.425Z,2.70
2018-08-13T07:52:24.084Z,2.50
2018-08-13T07:54:54.595Z,2.50
2018-08-13T07:57:25.106Z,2.60
2018-08-13T07:59:55.639Z,2.60
2018-08-13T08:02:26.283Z,2.50
2018-08-13T08:04:56.880Z,2.27
2018-08-13T08:07:27.717Z,2.70
2018-08-13T08:09:58.208Z,2.90
2018-08-13T08:12:28.528Z,2.50
2018-08-13T08:14:59.159Z,2.58
2018-08-13T08:17:30.052Z,2.50
2018-08-13T08:20:00.778Z,2.50
2018-08-13T08:22:31.435Z,2.15
2018-08-13T08:25:01.948Z,2.58
2018-08-13T08:27:32.421Z,2.15
2018-08-13T08:30:02.906Z,2.40
2018-08-13T08:32:33.647Z,1.95
2018-08-13T08:35:04.043Z,1.98
2018-08-13T08:37:34.502Z,2.50
2018-08-13T08:40:05.882Z,2.10
2018-08-13T08:42:36.147Z,2.42
2018-08-13T08:45:09.316Z,2.70
2018-08-13T08:47:39.576Z,2.42
2018-08-13T08:50:10.349Z,2.50
2018-08-13T08:52:40.826Z,2.50
2018-08-13T08:55:11.140Z,2.40
2018-08-13T08:57:41.764Z,2.60
2018-08-13T09:00:15.941Z,2.55
2018-08-13T09:02:46.949Z,2.60
2018-08-13T09:05:17.756Z,3.02
2018-08-13T09:07:49.466Z,2.62
2018-08-13T09:10:21.139Z,2.58
2018-08-13T09:12:52.730Z,1.75
2018-08-13T09:15:23.372Z,1.90
2018-08-13T09:18:04.425Z,1.90
2018-08-13T09:20:47.210Z,2.27
2018-08-13T09:23:28.027Z,1.60
2018-08-13T09:26:09.619Z,1.70
2018-08-13T09:28:50.989Z,1.67
2018-08-13T09:31:31.929Z,1.87
2018-08-13T09:34:12.692Z,1.52
2018-08-13T09:36:43.166Z,1.95
2018-08-13T09:39:13.494Z,2.05
2018-08-13T09:41:44.155Z,2.00
2018-08-13T09:44:14.791Z,2.00
2018-08-13T09:46:45.293Z,1.77
2018-08-13T09:49:15.987Z,1.92
2018-08-13T09:51:46.639Z,2.05
2018-08-13T09:54:17.454Z,2.20
2018-08-13T09:56:48.453Z,2.00
2018-08-13T09:59:19.480Z,2.25
2018-08-13T10:01:50.523Z,2.17
2018-08-13T10:04:21.497Z,2.30
2018-08-13T10:06:52.194Z,2.30
2018-08-13T10:09:22.887Z,2.15
2018-08-13T10:11:53.815Z,2.20
2018-08-13T10:14:24.333Z,2.30
2018-08-13T10:16:54.773Z,2.35
2018-08-13T10:19:25.551Z,2.35
2018-08-13T10:21:56.593Z,2.65
2018-08-13T10:24:27.992Z,2.47
2018-08-13T10:26:58.319Z,2.50
2018-08-13T10:29:28.803Z,2.10
2018-08-13T10:31:59.518Z,2.22
2018-08-13T10:34:29.944Z,2.40
2018-08-13T10:37:00.141Z,2.40
2018-08-13T10:39:30.620Z,2.60
2018-08-13T10:42:01.139Z,2.17
2018-08-13T10:44:31.662Z,2.25
2018-08-13T10:47:02.392Z,2.22
2018-08-13T10:49:34.143Z,2.50
2018-08-13T10:52:04.719Z,2.12
2018-08-13T10:54:35.194Z,1.80
2018-08-13T10:57:05.595Z,2.22
2018-08-13T10:59:36.160Z,1.90
2018-08-13T11:02:06.659Z,2.12
2018-08-13T11:04:37.521Z,2.20
2018-08-13T11:07:07.919Z,2.17
2018-08-13T11:09:38.548Z,1.92
2018-08-13T11:12:09.385Z,1.82
2018-08-13T11:14:40.296Z,1.90
2018-08-13T11:17:10.868Z,1.98
2018-08-13T11:19:40.948Z,2.02
2018-08-13T11:22:11.912Z,1.77
2018-08-13T11:24:42.485Z,2.00
2018-08-13T11:27:14.504Z,1.90
2018-08-13T11:29:46.304Z,2.20
2018-08-13T11:32:17.072Z,1.92
2018-08-13T11:34:47.731Z,2.33
2018-08-13T11:37:19.073Z,2.30
2018-08-13T11:39:49.599Z,2.10
2018-08-13T11:42:20.612Z,1.95
2018-08-13T11:44:51.140Z,2.03
2018-08-13T11:47:21.531Z,1.82
2018-08-13T11:49:52.123Z,2.12
2018-08-13T11:52:22.607Z,2.15
2018-08-13T11:54:53.485Z,2.00
2018-08-13T11:57:24.548Z,1.80
2018-08-13T11:59:54.922Z,2.27
2018-08-13T12:02:25.150Z,2.00
2018-08-13T12:04:55.608Z,2.27
2018-08-13T12:07:26.126Z,1.95
2018-08-13T12:09:56.797Z,2.43
2018-08-13T12:12:27.426Z,2.27
2018-08-13T12:14:57.905Z,2.20
2018-08-13T12:17:28.284Z,2.10
2018-08-13T12:19:58.722Z,2.23
2018-08-13T12:22:29.166Z,1.90
2018-08-13T12:24:59.857Z,2.17
2018-08-13T12:27:30.205Z,2.33
2018-08-13T12:30:00.855Z,2.12
2018-08-13T12:32:31.227Z,2.47
2018-08-13T12:35:01.559Z,2.05
2018-08-13T12:37:32.128Z,2.10
2018-08-13T12:40:02.539Z,2.20
2018-08-13T12:42:32.879Z,2.10
2018-08-13T12:45:03.349Z,1.82
2018-08-13T12:47:34.105Z,1.77
2018-08-13T12:50:04.368Z,1.80
2018-08-13T12:52:34.866Z,1.62
2018-08-13T12:55:05.888Z,1.90
2018-08-13T12:57:36.155Z,2.05
2018-08-13T13:00:09.123Z,1.80
2018-08-13T13:02:40.054Z,1.72
2018-08-13T13:05:11.782Z,2.00
2018-08-13T13:07:42.613Z,1.80
2018-08-13T13:10:14.434Z,1.80
2018-08-13T13:12:45.104Z,1.98
2018-08-13T13:15:17.779Z,1.85
2018-08-13T13:17:48.972Z,1.98
2018-08-13T13:20:21.014Z,1.98
2018-08-13T13:22:51.848Z,2.08
2018-08-13T13:25:22.481Z,2.02
2018-08-13T13:27:53.042Z,1.90
2018-08-13T13:30:23.412Z,1.85
2018-08-13T13:32:53.918Z,2.75
2018-08-13T13:35:24.988Z,2.00
2018-08-13T13:37:55.271Z,1.70
2018-08-13T13:40:25.679Z,2.25
2018-08-13T13:42:56.246Z,1.87
2018-08-13T13:45:26.657Z,2.00
2018-08-13T13:47:57.027Z,1.90
2018-08-13T13:50:27.454Z,1.90
2018-08-13T13:52:57.968Z,2.00
2018-08-13T13:55:28.487Z,2.05
2018-08-13T13:57:59.021Z,1.90
2018-08-13T14:00:29.669Z,1.60
2018-08-13T14:03:00.347Z,1.90
2018-08-13T14:05:30.745Z,1.90
2018-08-13T14:08:01.221Z,2.00
2018-08-13T14:10:31.590Z,2.02
2018-08-13T14:13:02.044Z,2.10
2018-08-13T14:15:32.523Z,1.80
2018-08-13T14:18:02.958Z,1.90
2018-08-13T14:20:33.300Z,1.80
2018-08-13T14:23:03.638Z,2.00
2018-08-13T14:25:33.959Z,1.80
2018-08-13T14:28:04.559Z,1.80
2018-08-13T14:30:35.069Z,1.80
2018-08-13T14:33:05.570Z,1.90
2018-08-13T14:35:36.775Z,1.67
2018-08-13T14:38:07.372Z,1.80
2018-08-13T14:40:38.052Z,1.95
2018-08-13T14:43:08.637Z,1.90
2018-08-13T14:45:39.111Z,1.70
2018-08-13T14:48:09.412Z,1.57
2018-08-13T14:50:39.854Z,1.47
2018-08-13T14:53:10.533Z,1.80
2018-08-13T14:55:40.994Z,1.60
2018-08-13T14:58:13.170Z,1.70
2018-08-13T15:00:43.623Z,1.65
2018-08-13T15:03:14.372Z,1.70
2018-08-13T15:05:44.906Z,2.20
2018-08-13T15:08:15.361Z,1.60
2018-08-13T15:10:45.845Z,1.60
2018-08-13T15:13:16.410Z,1.80
2018-08-13T15:15:47.190Z,1.98
2018-08-13T15:18:17.815Z,2.08
2018-08-13T15:20:49.910Z,1.80
2018-08-13T15:23:20.385Z,1.70
2018-08-13T15:25:52.491Z,1.70
2018-08-13T15:28:23.428Z,1.90
2018-08-13T15:30:53.771Z,1.75
2018-08-13T15:33:24.559Z,2.03
2018-08-13T15:35:55.028Z,2.10
2018-08-13T15:38:25.632Z,2.05
2018-08-13T15:40:56.141Z,1.90
2018-08-13T15:43:26.765Z,1.80
2018-08-13T15:45:57.106Z,1.77
2018-08-13T15:48:27.785Z,1.82
2018-08-13T15:50:59.028Z,2.10
2018-08-13T15:53:29.608Z,2.00
2018-08-13T15:55:59.899Z,1.77
2018-08-13T15:58:30.287Z,1.70
2018-08-13T16:01:01.051Z,1.70
2018-08-13T16:03:32.915Z,1.80
2018-08-13T16:06:03.458Z,2.43
2018-08-13T16:08:33.751Z,1.62
2018-08-13T16:11:04.431Z,1.80
2018-08-13T16:13:35.337Z,1.92
2018-08-13T16:16:05.996Z,1.52
2018-08-13T16:18:36.322Z,1.87
2018-08-13T16:21:06.662Z,1.90
2018-08-13T16:23:37.183Z,2.00
2018-08-13T16:26:07.605Z,2.00
2018-08-13T16:28:38.258Z,1.70
2018-08-13T16:31:08.656Z,1.55
2018-08-13T16:33:39.278Z,1.85
2018-08-13T16:36:10.810Z,1.80
2018-08-13T16:38:41.276Z,1.95
2018-08-13T16:41:11.716Z,1.62
2018-08-13T16:43:42.472Z,1.67
2018-08-13T16:46:14.379Z,1.80
2018-08-13T16:48:48.819Z,2.00
2018-08-13T16:51:19.080Z,2.00
2018-08-13T16:53:49.212Z,1.90
2018-08-13T16:56:19.411Z,2.13
2018-08-13T16:58:49.596Z,2.00
2018-08-13T17:01:19.675Z,2.07
2018-08-13T17:03:49.695Z,1.70
2018-08-13T17:06:19.879Z,1.80
2018-08-13T17:08:50.306Z,1.90
2018-08-13T17:11:20.440Z,2.10
2018-08-13T17:13:50.586Z,1.93
2018-08-13T17:16:21.077Z,1.90
2018-08-13T17:21:46.070Z,2.13
2018-08-13T17:24:19.399Z,2.37
2018-08-13T17:26:49.517Z,2.17
2018-08-13T17:29:19.483Z,2.17
2018-08-13T17:31:49.490Z,2.00
2018-08-13T17:34:19.479Z,2.10
2018-08-13T17:36:49.562Z,2.50
2018-08-13T17:39:19.556Z,2.20
2018-08-13T17:44:49.518Z,2.27
2018-08-13T17:47:19.624Z,2.10
2018-08-13T17:49:49.581Z,2.30
2018-08-13T17:52:19.718Z,2.23
2018-08-13T17:54:49.800Z,1.90
2018-08-13T18:00:18.721Z,2.47
2018-08-13T18:02:48.792Z,2.47
2018-08-13T18:05:22.439Z,2.00
2018-08-13T18:07:52.969Z,2.20
2018-08-13T18:10:36.428Z,2.23
2018-08-13T18:13:08.335Z,2.50
2018-08-13T18:15:38.361Z,2.20
2018-08-13T18:18:09.474Z,2.43
2018-08-13T18:20:39.542Z,2.10
2018-08-13T18:23:09.573Z,2.33
2018-08-13T18:25:55.277Z,2.03
2018-08-13T18:28:25.263Z,2.30
2018-08-13T18:30:56.214Z,2.20
2018-08-13T18:33:26.275Z,2.27
2018-08-13T18:36:07.744Z,2.30
2018-08-13T18:38:39.807Z,2.30
2018-08-13T18:41:09.873Z,2.23
2018-08-13T18:43:39.897Z,2.30
2018-08-13T18:46:09.870Z,2.40
2018-08-13T18:48:39.873Z,2.20
2018-08-13T18:54:21.050Z,2.10
2018-08-13T18:56:51.005Z,2.30
2018-08-13T18:59:21.114Z,2.07
2018-08-13T19:01:51.131Z,2.70
2018-08-13T19:04:21.083Z,2.27
2018-08-13T19:06:51.069Z,2.03
2018-08-13T19:09:21.066Z,2.30
2018-08-13T19:11:51.911Z,2.20
2018-08-13T19:14:21.928Z,2.40
2018-08-13T19:17:09.783Z,2.43
2018-08-13T19:19:40.308Z,2.33
2018-08-13T19:22:10.404Z,2.70
2018-08-13T19:24:41.526Z,2.80
2018-08-13T19:27:11.532Z,2.83
2018-08-13T19:31:35.293Z,3.30
2018-08-13T19:34:05.800Z,3.00
2018-08-13T19:36:36.238Z,3.30
2018-08-13T19:39:10.697Z,2.83
2018-08-13T19:41:41.418Z,3.00
2018-08-13T19:44:12.310Z,2.77
2018-08-13T19:46:43.316Z,2.43
2018-08-13T19:49:13.887Z,2.40
2018-08-13T19:51:44.271Z,2.70
2018-08-13T19:54:15.068Z,2.80
2018-08-13T19:56:45.503Z,2.67
2018-08-13T19:59:16.377Z,2.60
2018-08-13T20:01:46.793Z,2.57
2018-08-13T20:04:17.820Z,2.97
2018-08-13T20:06:48.560Z,3.27
2018-08-13T20:09:19.097Z,3.00
2018-08-13T20:11:53.666Z,3.00
2018-08-13T20:14:25.565Z,2.87
2018-08-13T20:16:56.368Z,3.03
2018-08-13T20:19:26.951Z,3.03
2018-08-13T20:21:57.746Z,3.07
2018-08-13T20:24:28.392Z,3.43
2018-08-13T20:26:58.811Z,3.37
2018-08-13T20:29:30.053Z,3.43
2018-08-13T20:32:00.584Z,3.30
2018-08-13T20:34:30.833Z,3.13
2018-08-13T20:37:01.682Z,3.23
2018-08-13T20:39:32.098Z,3.10
2018-08-13T20:42:02.290Z,3.13
2018-08-13T20:44:33.071Z,3.20
2018-08-13T20:47:03.593Z,3.27
2018-08-13T20:49:34.614Z,3.40
2018-08-13T20:52:04.905Z,3.57
2018-08-13T20:54:35.420Z,3.73
2018-08-13T20:57:06.082Z,3.53
2018-08-13T20:59:36.521Z,3.40
2018-08-13T21:02:06.803Z,3.30
2018-08-13T21:04:37.483Z,3.23
2018-08-13T21:07:07.891Z,3.53
2018-08-13T21:09:38.624Z,3.53
2018-08-13T21:12:09.688Z,2.97
2018-08-13T21:14:40.426Z,3.53
2018-08-13T21:17:11.073Z,3.63
2018-08-13T21:19:41.531Z,3.30
2018-08-13T21:22:12.156Z,3.90
2018-08-13T21:24:42.858Z,3.23
2018-08-13T21:27:13.410Z,3.30
2018-08-13T21:29:43.810Z,3.03
2018-08-13T21:32:14.131Z,3.40
2018-08-13T21:34:44.795Z,3.63
2018-08-13T21:37:15.438Z,3.83
2018-08-13T21:39:45.765Z,4.10
2018-08-13T21:42:16.501Z,4.27
2018-08-13T21:44:46.968Z,4.20
2018-08-13T21:47:17.320Z,4.77
2018-08-13T21:49:47.967Z,4.60
2018-08-13T21:52:18.539Z,4.63
2018-08-13T21:54:49.231Z,4.97
2018-08-13T21:57:23.377Z,4.60
2018-08-13T21:59:55.092Z,4.53
2018-08-13T22:02:25.601Z,4.57
2018-08-13T22:04:55.955Z,4.77
2018-08-13T22:07:26.560Z,4.83
2018-08-13T22:09:57.180Z,4.97
2018-08-13T22:12:27.729Z,4.90
2018-08-13T22:14:58.185Z,4.80
2018-08-13T22:17:28.902Z,4.90
2018-08-13T22:19:59.604Z,5.20
2018-08-13T22:22:30.041Z,5.53
2018-08-13T22:25:04.121Z,5.27
2018-08-13T22:27:34.692Z,5.53
2018-08-13T22:30:06.199Z,5.53
2018-08-13T22:32:36.766Z,5.57
2018-08-13T22:35:08.621Z,6.17
2018-08-13T22:37:40.801Z,6.53
2018-08-13T22:40:14.776Z,5.80
2018-08-13T22:42:46.021Z,6.60
2018-08-13T22:45:19.223Z,6.40
2018-08-13T22:47:49.729Z,6.07
2018-08-13T22:50:20.558Z,6.80
2018-08-13T22:52:50.917Z,6.33
2018-08-13T22:55:21.323Z,5.93
2018-08-13T22:57:51.572Z,6.27
2018-08-13T23:00:22.250Z,6.10
2018-08-13T23:02:52.873Z,6.07
2018-08-13T23:05:26.175Z,5.83
2018-08-13T23:07:56.603Z,5.90
2018-08-13T23:10:27.098Z,5.73
2018-08-13T23:12:57.642Z,6.20
2018-08-13T23:15:27.959Z,5.80
2018-08-13T23:17:58.371Z,5.80
2018-08-13T23:20:29.934Z,5.80
2018-08-13T23:23:01.448Z,6.07
2018-08-13T23:25:32.894Z,6.13
2018-08-13T23:28:04.712Z,6.20
2018-08-13T23:30:35.323Z,6.30
2018-08-13T23:33:06.173Z,5.60
2018-08-13T23:35:36.652Z,5.20
2018-08-13T23:38:07.032Z,5.43
2018-08-13T23:40:37.681Z,5.60
2018-08-13T23:43:08.121Z,4.93
2018-08-13T23:45:39.018Z,5.30
2018-08-13T23:48:18.740Z,5.47
2018-08-13T23:50:49.462Z,4.90
2018-08-13T23:53:20.165Z,4.77
2018-08-13T23:55:50.633Z,5.20
2018-08-13T23:58:21.099Z,5.20
